Time;durP1;ratioP1;P1;durP2;ratioP2;P2;SDS_P1;SDS_P2;PMS_P1;PMS_P2;Temp;Humidity;BMP_temperature;BMP_pressure;BME280_temperature;BME280_humidity;BME280_pressure;Samples;Min_cycle;Max_cycle;Signal;HPM_P1;HPM_P2
2022/05/21 00:00:14;;;;;;;30.17;3.90;;;;;;;;;;5112911;28;20020;-69
2022/05/21 00:02:39;;;;;;;21.65;3.90;;;;;;;;;;5111510;28;20022;-69
2022/05/21 00:05:05;;;;;;;15.52;3.25;;;;;;;;;;5099751;28;20012;-68
2022/05/21 00:07:30;;;;;;;19.17;3.58;;;;;;;;;;5107311;28;20390;-69
2022/05/21 00:09:56;;;;;;;17.63;3.25;;;;;;;;;;5104243;28;20066;-68
2022/05/21 00:12:21;;;;;;;23.50;3.97;;;;;;;;;;5106300;28;20367;-69
2022/05/21 00:14:46;;;;;;;25.48;4.05;;;;;;;;;;5102749;28;20024;-69
2022/05/21 00:17:11;;;;;;;22.77;3.78;;;;;;;;;;5107886;28;20017;-68
2022/05/21 00:19:37;;;;;;;27.60;4.05;;;;;;;;;;5110589;28;20014;-68
2022/05/21 00:22:02;;;;;;;23.58;4.05;;;;;;;;;;5108558;28;20483;-69
2022/05/21 00:24:28;;;;;;;27.00;3.60;;;;;;;;;;5103175;28;20019;-68
2022/05/21 00:26:53;;;;;;;20.85;3.95;;;;;;;;;;5098628;28;20073;-68
2022/05/21 00:29:20;;;;;;;26.98;3.55;;;;;;;;;;5108340;28;20425;-69
2022/05/21 00:31:45;;;;;;;23.77;3.88;;;;;;;;;;5104155;28;20047;-68
2022/05/21 00:34:11;;;;;;;18.98;4.00;;;;;;;;;;5102467;28;20537;-68
2022/05/21 00:36:36;;;;;;;16.55;3.83;;;;;;;;;;5104834;28;20036;-68
2022/05/21 00:39:02;;;;;;;27.45;4.18;;;;;;;;;;5100305;28;20040;-69
2022/05/21 00:41:27;;;;;;;19.38;3.53;;;;;;;;;;5103392;28;20028;-68
2022/05/21 00:43:57;;;;;;;18.23;3.70;;;;;;;;;;5103290;28;20099;-68
2022/05/21 00:46:30;;;;;;;21.50;4.30;;;;;;;;;;5083024;28;20032;-68
2022/05/21 00:49:13;;;;;;;24.45;4.05;;;;;;;;;;5104569;28;20061;-68
2022/05/21 00:51:43;;;;;;;22.63;4.40;;;;;;;;;;5103638;28;20028;-68
2022/05/21 00:54:09;;;;;;;28.30;5.05;;;;;;;;;;5102328;28;20042;-68
2022/05/21 00:56:36;;;;;;;28.55;4.32;;;;;;;;;;5102951;28;20031;-68
2022/05/21 01:01:49;;;;;;;20.95;4.05;;;;;;;;;;5109732;28;20395;-68
2022/05/21 01:04:14;;;;;;;21.30;4.38;;;;;;;;;;5113410;28;20031;-68
2022/05/21 01:06:39;;;;;;;30.33;4.32;;;;;;;;;;5110423;28;20023;-68
2022/05/21 01:09:05;;;;;;;19.73;3.63;;;;;;;;;;5098613;28;20027;-68
2022/05/21 01:11:31;;;;;;;23.80;4.57;;;;;;;;;;5102008;28;20544;-68
2022/05/21 01:13:56;;;;;;;28.52;4.18;;;;;;;;;;5100458;28;20058;-69
2022/05/21 01:16:22;;;;;;;34.58;4.78;;;;;;;;;;5104239;28;20019;-68
2022/05/21 01:18:47;;;;;;;14.90;3.78;;;;;;;;;;5098167;28;20077;-68
2022/05/21 01:21:12;;;;;;;26.10;4.80;;;;;;;;;;5110113;28;20027;-68
2022/05/21 01:23:38;;;;;;;36.10;4.88;;;;;;;;;;5104579;28;20576;-69
2022/05/21 01:26:05;;;;;;;26.08;4.35;;;;;;;;;;5102824;28;20061;-68
2022/05/21 01:28:32;;;;;;;22.08;4.50;;;;;;;;;;5112331;28;20027;-68
2022/05/21 01:30:59;;;;;;;34.72;5.32;;;;;;;;;;5102930;28;20031;-69
2022/05/21 01:33:26;;;;;;;36.28;4.95;;;;;;;;;;5097969;28;20036;-68
2022/05/21 01:35:51;;;;;;;22.13;3.70;;;;;;;;;;5101430;28;20503;-69
2022/05/21 01:38:18;;;;;;;30.13;4.57;;;;;;;;;;5101200;28;20103;-68
2022/05/21 01:40:43;;;;;;;35.38;4.93;;;;;;;;;;5107915;28;20028;-68
2022/05/21 01:45:53;;;;;;;38.90;4.45;;;;;;;;;;5101142;28;20027;-69
2022/05/21 01:48:20;;;;;;;26.23;4.15;;;;;;;;;;5109278;28;20027;-68
2022/05/21 01:50:46;;;;;;;21.25;4.00;;;;;;;;;;5101479;28;20016;-69
2022/05/21 01:53:11;;;;;;;26.20;4.95;;;;;;;;;;5110699;28;20039;-69
2022/05/21 01:55:37;;;;;;;27.23;4.65;;;;;;;;;;5106584;28;20383;-68
2022/05/21 01:58:02;;;;;;;34.42;4.88;;;;;;;;;;5098792;28;20098;-68
2022/05/21 02:00:28;;;;;;;30.45;5.10;;;;;;;;;;5099296;28;20041;-69
2022/05/21 02:02:53;;;;;;;25.73;4.43;;;;;;;;;;5095879;28;20482;-69
2022/05/21 02:05:18;;;;;;;22.48;4.93;;;;;;;;;;5085690;28;20024;-68
2022/05/21 02:07:43;;;;;;;33.10;4.82;;;;;;;;;;5102509;28;20012;-68
2022/05/21 02:10:09;;;;;;;37.50;5.05;;;;;;;;;;5112419;28;20039;-68
2022/05/21 02:12:34;;;;;;;23.67;4.13;;;;;;;;;;5099576;28;20034;-69
2022/05/21 02:14:59;;;;;;;37.75;4.60;;;;;;;;;;5100510;28;20028;-69
2022/05/21 02:17:25;;;;;;;28.08;4.70;;;;;;;;;;5107959;28;20019;-70
2022/05/21 02:19:50;;;;;;;33.28;4.68;;;;;;;;;;5105356;28;20533;-68
2022/05/21 02:22:15;;;;;;;20.35;4.25;;;;;;;;;;5110962;28;20024;-68
2022/05/21 02:24:40;;;;;;;18.52;3.45;;;;;;;;;;5114289;28;20543;-68
2022/05/21 02:27:10;;;;;;;20.45;4.32;;;;;;;;;;5114285;28;20024;-69
2022/05/21 02:29:35;;;;;;;21.80;4.20;;;;;;;;;;5115961;28;20379;-68
2022/05/21 02:32:00;;;;;;;20.95;3.92;;;;;;;;;;5109771;28;20036;-68
2022/05/21 02:34:25;;;;;;;20.48;4.22;;;;;;;;;;5107407;28;20016;-68
2022/05/21 02:39:34;;;;;;;20.50;3.85;;;;;;;;;;5107856;28;20121;-68
2022/05/21 02:42:00;;;;;;;23.75;3.88;;;;;;;;;;5102318;28;20466;-68
2022/05/21 02:44:26;;;;;;;30.88;4.97;;;;;;;;;;5105589;28;20059;-69
2022/05/21 02:46:52;;;;;;;35.97;4.43;;;;;;;;;;5111292;28;20024;-68
2022/05/21 02:49:17;;;;;;;29.88;4.47;;;;;;;;;;5108166;28;20464;-68
2022/05/21 02:51:42;;;;;;;29.83;4.03;;;;;;;;;;5111130;28;20024;-68
2022/05/21 02:54:09;;;;;;;25.40;3.92;;;;;;;;;;5104082;28;20027;-68
2022/05/21 02:56:36;;;;;;;31.88;4.45;;;;;;;;;;5102049;28;20046;-68
2022/05/21 02:59:06;;;;;;;32.22;4.28;;;;;;;;;;5110517;28;20034;-68
2022/05/21 03:01:31;;;;;;;36.58;4.13;;;;;;;;;;5105939;28;20047;-68
2022/05/21 03:03:57;;;;;;;20.15;4.20;;;;;;;;;;5110189;28;20046;-68
2022/05/21 03:06:22;;;;;;;21.80;3.67;;;;;;;;;;5105517;28;20382;-69
2022/05/21 03:11:31;;;;;;;24.73;4.10;;;;;;;;;;5108354;28;20116;-68
2022/05/21 03:13:56;;;;;;;19.17;3.42;;;;;;;;;;5104200;28;20535;-69
2022/05/21 03:16:22;;;;;;;20.58;4.05;;;;;;;;;;5103828;28;20012;-68
2022/05/21 03:18:47;;;;;;;30.38;4.57;;;;;;;;;;5099755;28;20055;-68
2022/05/21 03:21:13;;;;;;;35.05;4.93;;;;;;;;;;5105961;28;20463;-68
2022/05/21 03:23:38;;;;;;;27.58;4.38;;;;;;;;;;5098467;28;20016;-68
2022/05/21 03:26:04;;;;;;;22.85;5.15;;;;;;;;;;5110165;28;20112;-69
2022/05/21 03:28:29;;;;;;;21.58;4.57;;;;;;;;;;5114534;28;20030;-68
2022/05/21 03:30:54;;;;;;;37.08;5.15;;;;;;;;;;5109462;28;20016;-68
2022/05/21 03:33:20;;;;;;;30.23;4.55;;;;;;;;;;5109411;28;20041;-68
2022/05/21 03:35:45;;;;;;;39.00;5.50;;;;;;;;;;5100362;28;20419;-68
2022/05/21 03:38:11;;;;;;;17.95;3.78;;;;;;;;;;5104415;28;20012;-69
2022/05/21 03:40:37;;;;;;;23.52;4.10;;;;;;;;;;5102726;28;20418;-68
2022/05/21 03:43:02;;;;;;;25.35;5.35;;;;;;;;;;5100207;28;20043;-69
2022/05/21 03:45:27;;;;;;;17.38;4.53;;;;;;;;;;5109673;28;20024;-68
2022/05/21 03:47:53;;;;;;;22.70;4.28;;;;;;;;;;5110751;28;20020;-68
2022/05/21 03:50:20;;;;;;;26.10;4.65;;;;;;;;;;5110234;28;20035;-69
2022/05/21 03:52:45;;;;;;;24.40;4.35;;;;;;;;;;5108411;28;20029;-69
2022/05/21 03:55:11;;;;;;;29.63;5.07;;;;;;;;;;5111835;28;20488;-69
2022/05/21 03:57:36;;;;;;;18.30;4.07;;;;;;;;;;5102967;28;20032;-68
2022/05/21 04:00:03;;;;;;;18.30;4.47;;;;;;;;;;5111402;28;20024;-69
2022/05/21 04:02:28;;;;;;;36.67;4.95;;;;;;;;;;5101169;28;20525;-69
2022/05/21 04:04:54;;;;;;;22.20;4.20;;;;;;;;;;5114403;28;20035;-68
2022/05/21 04:07:19;;;;;;;24.92;4.57;;;;;;;;;;5104392;28;20027;-69
2022/05/21 04:09:44;;;;;;;35.00;3.85;;;;;;;;;;5109610;28;20020;-69
2022/05/21 04:12:10;;;;;;;20.08;4.50;;;;;;;;;;5102441;28;20032;-69
2022/05/21 04:14:35;;;;;;;25.85;4.28;;;;;;;;;;5106840;28;20048;-68
2022/05/21 04:17:01;;;;;;;30.42;4.28;;;;;;;;;;5103242;28;20471;-68
2022/05/21 04:19:27;;;;;;;29.95;4.65;;;;;;;;;;5108501;28;20080;-69
2022/05/21 04:21:53;;;;;;;28.20;4.53;;;;;;;;;;5107089;28;20446;-68
2022/05/21 04:24:18;;;;;;;36.92;4.32;;;;;;;;;;5112778;28;20026;-69
2022/05/21 04:26:44;;;;;;;21.77;4.05;;;;;;;;;;5098781;28;20024;-69
2022/05/21 04:29:10;;;;;;;23.77;4.30;;;;;;;;;;5099447;28;20367;-69
2022/05/21 04:31:36;;;;;;;22.83;4.13;;;;;;;;;;5111869;28;20027;-68
2022/05/21 04:34:02;;;;;;;31.40;4.45;;;;;;;;;;5108385;28;20044;-68
2022/05/21 04:36:27;;;;;;;27.25;4.70;;;;;;;;;;5105156;28;20047;-69
2022/05/21 04:38:53;;;;;;;28.38;4.88;;;;;;;;;;5106554;28;20015;-69
2022/05/21 04:41:19;;;;;;;31.23;4.40;;;;;;;;;;5107804;28;20460;-68
2022/05/21 04:43:44;;;;;;;23.23;4.47;;;;;;;;;;5112275;28;20020;-69
2022/05/21 04:46:11;;;;;;;21.27;4.43;;;;;;;;;;5098959;28;20053;-69
2022/05/21 04:48:36;;;;;;;22.33;4.13;;;;;;;;;;5103907;28;20031;-68
2022/05/21 04:51:02;;;;;;;24.65;3.97;;;;;;;;;;5111928;28;20344;-68
2022/05/21 04:53:28;;;;;;;20.38;3.58;;;;;;;;;;5110636;28;20132;-69
2022/05/21 04:55:53;;;;;;;19.52;4.03;;;;;;;;;;5099827;28;20028;-69
2022/05/21 04:58:19;;;;;;;25.73;3.78;;;;;;;;;;5100139;28;20451;-69
2022/05/21 05:00:44;;;;;;;22.52;4.15;;;;;;;;;;5110688;28;20042;-68
2022/05/21 05:03:11;;;;;;;28.30;4.53;;;;;;;;;;5111191;28;20028;-68
2022/05/21 05:05:37;;;;;;;21.77;4.22;;;;;;;;;;5105326;28;20047;-69
2022/05/21 05:08:02;;;;;;;20.75;3.95;;;;;;;;;;5107106;28;20034;-68
2022/05/21 05:10:27;;;;;;;24.05;3.80;;;;;;;;;;5113001;28;20106;-69
2022/05/21 05:12:53;;;;;;;20.05;3.90;;;;;;;;;;5096296;28;20491;-68
2022/05/21 05:15:18;;;;;;;17.08;3.35;;;;;;;;;;5103374;28;20106;-69
2022/05/21 05:17:43;;;;;;;21.15;4.07;;;;;;;;;;5100125;28;20085;-69
2022/05/21 05:20:09;;;;;;;15.57;3.70;;;;;;;;;;5102957;28;20020;-69
2022/05/21 05:22:34;;;;;;;17.77;3.88;;;;;;;;;;5100319;28;20448;-68
2022/05/21 05:25:02;;;;;;;31.08;4.25;;;;;;;;;;5111851;28;20038;-68
2022/05/21 05:27:28;;;;;;;17.75;3.20;;;;;;;;;;5102619;28;20043;-68
2022/05/21 05:29:53;;;;;;;15.50;3.88;;;;;;;;;;5108228;28;20399;-68
2022/05/21 05:32:18;;;;;;;25.45;4.32;;;;;;;;;;5099611;28;20028;-68
2022/05/21 05:34:43;;;;;;;11.40;3.33;;;;;;;;;;5112069;28;20046;-69
2022/05/21 05:37:09;;;;;;;15.90;3.20;;;;;;;;;;5104203;28;20036;-69
2022/05/21 05:39:34;;;;;;;16.92;3.53;;;;;;;;;;5099052;28;20085;-69
2022/05/21 05:42:04;;;;;;;15.75;3.25;;;;;;;;;;5104284;28;20028;-69
2022/05/21 05:44:31;;;;;;;15.30;3.15;;;;;;;;;;5106071;28;20015;-69
2022/05/21 05:46:56;;;;;;;13.98;3.17;;;;;;;;;;5107247;28;20041;-69
2022/05/21 05:49:21;;;;;;;18.23;3.15;;;;;;;;;;5101316;28;20095;-69
2022/05/21 05:51:46;;;;;;;20.65;3.38;;;;;;;;;;5104218;28;20024;-69
2022/05/21 05:54:12;;;;;;;20.17;3.20;;;;;;;;;;5101816;28;20057;-68
2022/05/21 05:56:37;;;;;;;13.88;2.83;;;;;;;;;;5102938;28;20022;-69
2022/05/21 06:01:46;;;;;;;19.17;3.13;;;;;;;;;;5100384;28;20093;-68
2022/05/21 06:04:11;;;;;;;21.70;4.05;;;;;;;;;;5102833;28;20035;-69
2022/05/21 06:06:36;;;;;;;18.77;3.92;;;;;;;;;;5102924;28;20028;-69
2022/05/21 06:09:02;;;;;;;23.48;3.40;;;;;;;;;;5098471;28;20460;-69
2022/05/21 06:11:27;;;;;;;15.57;3.28;;;;;;;;;;5109312;28;20103;-68
2022/05/21 06:13:52;;;;;;;26.05;4.68;;;;;;;;;;5098906;28;20036;-69
2022/05/21 06:16:18;;;;;;;26.85;3.75;;;;;;;;;;5096974;28;20094;-69
2022/05/21 06:18:43;;;;;;;26.58;2.72;;;;;;;;;;5101040;28;20154;-69
2022/05/21 06:21:09;;;;;;;16.33;2.63;;;;;;;;;;5110502;28;20032;-69
2022/05/21 06:23:34;;;;;;;22.67;3.15;;;;;;;;;;5097456;28;20027;-69
2022/05/21 06:26:00;;;;;;;22.67;3.75;;;;;;;;;;5104101;28;20026;-69
2022/05/21 06:28:25;;;;;;;17.08;3.28;;;;;;;;;;5098203;28;20039;-69
2022/05/21 06:30:51;;;;;;;14.93;3.13;;;;;;;;;;5105989;28;20459;-68
2022/05/21 06:33:18;;;;;;;30.15;3.50;;;;;;;;;;5101668;28;20047;-69
2022/05/21 06:35:44;;;;;;;20.02;3.10;;;;;;;;;;5098769;28;20059;-69
2022/05/21 06:38:10;;;;;;;16.35;3.35;;;;;;;;;;5109972;28;20451;-69
2022/05/21 06:40:35;;;;;;;20.33;3.65;;;;;;;;;;5102707;28;20072;-69
2022/05/21 06:43:00;;;;;;;29.75;3.63;;;;;;;;;;5097014;28;20035;-68
2022/05/21 06:45:29;;;;;;;21.23;2.97;;;;;;;;;;5105639;28;20024;-69
2022/05/21 06:47:59;;;;;;;18.25;2.85;;;;;;;;;;5106541;28;20066;-69
2022/05/21 06:50:24;;;;;;;19.40;2.88;;;;;;;;;;5105056;28;20431;-69
2022/05/21 06:52:49;;;;;;;27.20;3.72;;;;;;;;;;5100255;28;20106;-69
2022/05/21 06:55:15;;;;;;;16.90;3.47;;;;;;;;;;5094971;28;20371;-69
2022/05/21 06:57:40;;;;;;;24.80;4.00;;;;;;;;;;5105585;28;20040;-69
2022/05/21 07:00:05;;;;;;;19.50;3.10;;;;;;;;;;5085313;28;20104;-69
2022/05/21 07:02:31;;;;;;;23.20;3.15;;;;;;;;;;5107670;28;20469;-69
2022/05/21 07:07:46;;;;;;;27.10;3.60;;;;;;;;;;5110672;28;20078;-69
2022/05/21 07:10:17;;;;;;;17.13;2.42;;;;;;;;;;5110839;28;20062;-69
2022/05/21 07:12:42;;;;;;;16.58;2.33;;;;;;;;;;5116287;28;20478;-69
2022/05/21 07:15:07;;;;;;;20.40;2.85;;;;;;;;;;5116696;28;20027;-69
2022/05/21 07:17:33;;;;;;;17.63;2.70;;;;;;;;;;5116247;28;20073;-68
2022/05/21 07:20:00;;;;;;;27.15;3.58;;;;;;;;;;5116896;28;20024;-68
2022/05/21 07:22:26;;;;;;;14.00;2.78;;;;;;;;;;5116327;28;20032;-69
2022/05/21 07:24:51;;;;;;;15.90;3.30;;;;;;;;;;5113700;28;20024;-69
2022/05/21 07:27:16;;;;;;;16.67;2.83;;;;;;;;;;5107255;28;20038;-69
2022/05/21 07:29:42;;;;;;;14.13;2.55;;;;;;;;;;5107859;28;20035;-69
2022/05/21 07:32:18;;;;;;;18.88;2.92;;;;;;;;;;5107092;28;20039;-69
2022/05/21 07:34:43;;;;;;;14.60;2.90;;;;;;;;;;5115122;28;20721;-69
2022/05/21 07:37:08;;;;;;;21.63;2.53;;;;;;;;;;5103897;28;20055;-70
2022/05/21 07:39:33;;;;;;;21.33;3.17;;;;;;;;;;5110604;28;20020;-69
2022/05/21 07:41:59;;;;;;;18.33;2.65;;;;;;;;;;5098638;28;20360;-68
2022/05/21 07:44:24;;;;;;;15.20;2.53;;;;;;;;;;5105274;28;20032;-69
2022/05/21 07:46:49;;;;;;;19.48;2.78;;;;;;;;;;5105315;28;20012;-69
2022/05/21 07:49:15;;;;;;;16.30;3.20;;;;;;;;;;5102088;28;20032;-69
2022/05/21 07:51:40;;;;;;;14.82;2.60;;;;;;;;;;5110919;28;20057;-68
2022/05/21 07:54:05;;;;;;;12.00;2.75;;;;;;;;;;5105799;28;20040;-68
2022/05/21 07:56:32;;;;;;;14.15;2.55;;;;;;;;;;5114411;28;20051;-68
2022/05/21 07:58:57;;;;;;;16.15;2.70;;;;;;;;;;5102881;28;20037;-68
2022/05/21 08:01:22;;;;;;;19.58;2.60;;;;;;;;;;5114764;28;20416;-69
2022/05/21 08:03:48;;;;;;;13.20;3.50;;;;;;;;;;5114639;28;20034;-68
2022/05/21 08:06:13;;;;;;;14.30;2.42;;;;;;;;;;5114254;28;20032;-68
2022/05/21 08:08:38;;;;;;;24.42;3.20;;;;;;;;;;5114207;28;20027;-68
2022/05/21 08:11:03;;;;;;;20.05;3.30;;;;;;;;;;5107503;28;20054;-68
2022/05/21 08:13:29;;;;;;;18.92;3.42;;;;;;;;;;5106276;28;20062;-68
2022/05/21 08:15:54;;;;;;;13.88;3.33;;;;;;;;;;5099762;28;20050;-68
2022/05/21 08:18:19;;;;;;;23.45;4.25;;;;;;;;;;5115049;28;20032;-68
2022/05/21 08:20:44;;;;;;;16.67;2.47;;;;;;;;;;5112113;28;20141;-69
2022/05/21 08:28:42;;;;;;;;;;;;;;;;;;5115330;28;20042;-68
2022/05/21 08:31:07;;;;;;;18.25;2.85;;;;;;;;;;5114383;28;19908;-68
2022/05/21 08:33:33;;;;;;;19.27;3.30;;;;;;;;;;5114559;28;20047;-68
2022/05/21 08:35:58;;;;;;;22.08;3.00;;;;;;;;;;5114780;28;20049;-68
2022/05/21 08:38:23;;;;;;;16.10;2.90;;;;;;;;;;5114446;28;20106;-68
2022/05/21 08:41:03;;;;;;;14.52;2.55;;;;;;;;;;5113209;28;20031;-69
2022/05/21 08:43:40;;;;;;;11.00;2.38;;;;;;;;;;5112326;28;20028;-68
2022/05/21 08:46:17;;;;;;;20.38;3.17;;;;;;;;;;5113232;28;20039;-69
2022/05/21 08:48:50;;;;;;;11.25;2.17;;;;;;;;;;5105579;28;20383;-68
2022/05/21 08:51:18;;;;;;;19.38;3.00;;;;;;;;;;5102236;28;20097;-69
2022/05/21 08:53:47;;;;;;;23.48;2.70;;;;;;;;;;5106932;28;20114;-69
2022/05/21 08:56:12;;;;;;;14.32;2.65;;;;;;;;;;5113405;28;20483;-69
2022/05/21 08:58:43;;;;;;;13.75;2.50;;;;;;;;;;5106545;28;20077;-69
2022/05/21 09:01:11;;;;;;;11.32;2.30;;;;;;;;;;5108729;28;20061;-69
2022/05/21 09:03:37;;;;;;;12.35;2.63;;;;;;;;;;5101286;28;20067;-69
2022/05/21 09:06:14;;;;;;;12.20;2.58;;;;;;;;;;5096058;28;20059;-69
2022/05/21 09:08:45;;;;;;;13.18;2.80;;;;;;;;;;5097322;28;20032;-69
2022/05/21 09:11:16;;;;;;;14.70;2.85;;;;;;;;;;5101616;28;20043;-69
2022/05/21 09:13:59;;;;;;;13.52;2.55;;;;;;;;;;5096254;28;20474;-69
2022/05/21 09:19:09;;;;;;;10.32;2.90;;;;;;;;;;5111102;28;20088;-69
2022/05/21 09:21:39;;;;;;;10.93;2.83;;;;;;;;;;5107004;28;20110;-69
2022/05/21 09:24:05;;;;;;;17.08;2.63;;;;;;;;;;5091503;28;20118;-70
2022/05/21 09:26:44;;;;;;;11.75;2.55;;;;;;;;;;5098561;28;20137;-69
2022/05/21 09:29:27;;;;;;;11.52;2.35;;;;;;;;;;5094553;28;20096;-69
2022/05/21 09:31:55;;;;;;;13.35;2.83;;;;;;;;;;5105348;28;20024;-69
2022/05/21 09:34:20;;;;;;;14.90;2.47;;;;;;;;;;5099789;28;20036;-70
2022/05/21 09:36:46;;;;;;;13.25;2.90;;;;;;;;;;5105735;28;20383;-69
2022/05/21 09:39:11;;;;;;;19.65;2.88;;;;;;;;;;5103849;28;20031;-69
2022/05/21 09:41:37;;;;;;;11.13;2.95;;;;;;;;;;5100839;28;20031;-69
2022/05/21 09:47:08;;;;;;;13.65;2.47;;;;;;;;;;5103450;28;20039;-69
2022/05/21 09:49:34;;;;;;;13.43;3.35;;;;;;;;;;5107191;28;20027;-69
2022/05/21 09:52:01;;;;;;;13.02;2.90;;;;;;;;;;5098107;28;20047;-69
2022/05/21 09:54:34;;;;;;;10.15;2.80;;;;;;;;;;5108582;28;20039;-70
2022/05/21 09:56:59;;;;;;;9.70;2.85;;;;;;;;;;5101795;28;20115;-69
2022/05/21 09:59:27;;;;;;;9.95;2.60;;;;;;;;;;5104439;28;20118;-69
2022/05/21 10:01:54;;;;;;;13.50;3.33;;;;;;;;;;5101609;28;20501;-70
2022/05/21 10:04:19;;;;;;;11.35;2.47;;;;;;;;;;5098053;28;20460;-69
2022/05/21 10:06:51;;;;;;;11.07;2.85;;;;;;;;;;5102549;28;20027;-69
2022/05/21 10:12:09;;;;;;;10.63;2.95;;;;;;;;;;5102774;28;20042;-67
2022/05/21 10:14:37;;;;;;;18.17;3.13;;;;;;;;;;5101332;28;20410;-67
2022/05/21 10:17:07;;;;;;;17.27;3.05;;;;;;;;;;5100549;28;20032;-67
2022/05/21 10:19:50;;;;;;;12.63;2.75;;;;;;;;;;5106049;28;20036;-67
2022/05/21 10:22:24;;;;;;;12.18;3.00;;;;;;;;;;5100597;28;20467;-68
2022/05/21 10:24:49;;;;;;;12.75;2.38;;;;;;;;;;5099519;28;20378;-68
2022/05/21 10:27:20;;;;;;;11.27;3.03;;;;;;;;;;5107258;28;20028;-67
2022/05/21 10:29:56;;;;;;;10.60;2.53;;;;;;;;;;5107067;28;20028;-68
2022/05/21 10:32:24;;;;;;;11.40;2.90;;;;;;;;;;5103423;28;20124;-69
2022/05/21 10:34:55;;;;;;;10.18;2.25;;;;;;;;;;5106585;28;20486;-69
2022/05/21 10:37:34;;;;;;;10.52;2.20;;;;;;;;;;5103442;28;20055;-69
2022/05/21 10:40:18;;;;;;;9.85;1.95;;;;;;;;;;5105045;28;20410;-69
2022/05/21 10:43:01;;;;;;;9.13;2.13;;;;;;;;;;5105226;28;20027;-68
2022/05/21 10:45:35;;;;;;;10.23;3.00;;;;;;;;;;5103338;28;20020;-68
2022/05/21 10:48:06;;;;;;;16.92;2.83;;;;;;;;;;5105644;28;20028;-69
2022/05/21 10:50:38;;;;;;;11.05;2.28;;;;;;;;;;5106826;28;20024;-68
2022/05/21 10:53:06;;;;;;;8.52;2.38;;;;;;;;;;5108283;28;20032;-69
2022/05/21 10:55:35;;;;;;;13.27;2.80;;;;;;;;;;5105492;28;20020;-68
2022/05/21 10:58:19;;;;;;;10.15;2.45;;;;;;;;;;5103955;28;20106;-68
2022/05/21 11:00:50;;;;;;;12.95;2.80;;;;;;;;;;5108839;28;20049;-68
2022/05/21 11:03:34;;;;;;;12.65;2.75;;;;;;;;;;5107175;28;20035;-68
2022/05/21 11:06:17;;;;;;;10.77;3.25;;;;;;;;;;5108045;28;20404;-68
2022/05/21 11:08:54;;;;;;;17.93;3.37;;;;;;;;;;5104778;28;20038;-68
2022/05/21 11:11:25;;;;;;;16.52;3.00;;;;;;;;;;5107040;28;20503;-68
2022/05/21 11:13:59;;;;;;;9.80;2.47;;;;;;;;;;5114445;28;20070;-70
2022/05/21 11:16:31;;;;;;;39.40;6.82;;;;;;;;;;5105076;28;20035;-69
2022/05/21 11:19:02;;;;;;;11.23;2.22;;;;;;;;;;5107205;28;20020;-69
2022/05/21 11:21:33;;;;;;;9.98;2.45;;;;;;;;;;5109541;28;20034;-69
2022/05/21 11:24:04;;;;;;;13.43;2.58;;;;;;;;;;5105458;28;20036;-68
2022/05/21 11:26:47;;;;;;;11.65;2.63;;;;;;;;;;5109479;28;20062;-69
2022/05/21 11:29:15;;;;;;;13.48;3.10;;;;;;;;;;5106905;28;20031;-69
2022/05/21 11:37:32;;;;;;;16.13;3.40;;;;;;;;;;5107159;28;20502;-68
2022/05/21 11:39:59;;;;;;;11.52;2.55;;;;;;;;;;5108038;28;20027;-68
2022/05/21 11:42:30;;;;;;;13.23;2.95;;;;;;;;;;5105604;28;20024;-69
2022/05/21 11:44:58;;;;;;;9.68;2.17;;;;;;;;;;5102730;28;20121;-68
2022/05/21 11:47:23;;;;;;;16.70;2.83;;;;;;;;;;5102367;28;20486;-69
2022/05/21 11:49:52;;;;;;;11.18;2.47;;;;;;;;;;5098677;28;20028;-68
2022/05/21 11:52:29;;;;;;;8.35;2.38;;;;;;;;;;5110318;28;20020;-68
2022/05/21 11:54:54;;;;;;;16.88;3.05;;;;;;;;;;5111352;28;20103;-69
2022/05/21 11:57:37;;;;;;;13.82;2.70;;;;;;;;;;5108262;28;20114;-69
2022/05/21 12:00:09;;;;;;;12.73;2.40;;;;;;;;;;5101552;28;20032;-69
2022/05/21 12:02:36;;;;;;;15.85;2.45;;;;;;;;;;5097945;28;20020;-68
2022/05/21 12:05:06;;;;;;;13.75;2.38;;;;;;;;;;5102765;28;20020;-68
2022/05/21 12:07:40;;;;;;;15.73;2.47;;;;;;;;;;5107066;28;20027;-69
2022/05/21 12:10:18;;;;;;;10.65;2.63;;;;;;;;;;5109281;28;20067;-69
2022/05/21 12:12:59;;;;;;;12.05;2.03;;;;;;;;;;5102618;28;20113;-69
2022/05/21 12:15:33;;;;;;;12.25;2.15;;;;;;;;;;5107450;28;20084;-68
2022/05/21 12:18:03;;;;;;;11.95;2.63;;;;;;;;;;5115146;28;20035;-69
2022/05/21 12:20:51;;;;;;;11.82;1.60;;;;;;;;;;5115509;28;20023;-68
2022/05/21 12:23:35;;;;;;;16.15;2.20;;;;;;;;;;5100513;28;20482;-69
2022/05/21 12:26:02;;;;;;;16.77;2.35;;;;;;;;;;5105046;28;20032;-69
2022/05/21 12:28:35;;;;;;;9.32;1.75;;;;;;;;;;5115369;28;20045;-68
2022/05/21 12:31:01;;;;;;;13.45;2.17;;;;;;;;;;5106479;28;20036;-68
2022/05/21 12:33:38;;;;;;;9.95;1.92;;;;;;;;;;5110930;28;20069;-68
2022/05/21 12:36:07;;;;;;;12.40;1.80;;;;;;;;;;5108336;28;20127;-69
2022/05/21 12:38:35;;;;;;;15.27;1.90;;;;;;;;;;5109555;28;20035;-68
2022/05/21 12:41:12;;;;;;;9.48;1.83;;;;;;;;;;5096832;28;20016;-68
2022/05/21 12:43:42;;;;;;;15.02;2.42;;;;;;;;;;5111096;28;20103;-68
2022/05/21 12:46:17;;;;;;;8.15;1.92;;;;;;;;;;5108216;28;20133;-69
2022/05/21 12:48:42;;;;;;;8.23;1.65;;;;;;;;;;5105707;28;20506;-68
2022/05/21 12:51:10;;;;;;;9.85;1.75;;;;;;;;;;5100838;28;20031;-69
2022/05/21 12:53:43;;;;;;;9.60;1.95;;;;;;;;;;5106673;28;20035;-68
2022/05/21 12:56:14;;;;;;;12.60;2.20;;;;;;;;;;5108851;28;20027;-68
2022/05/21 12:58:39;;;;;;;9.25;2.38;;;;;;;;;;5102908;28;20491;-68
2022/05/21 13:01:05;;;;;;;11.32;1.98;;;;;;;;;;5104841;28;20020;-68
2022/05/21 13:03:32;;;;;;;11.55;2.13;;;;;;;;;;5106533;28;20024;-68
2022/05/21 13:06:03;;;;;;;10.52;1.85;;;;;;;;;;5101508;28;20204;-69
2022/05/21 13:08:30;;;;;;;12.77;2.08;;;;;;;;;;5101756;28;20030;-68
2022/05/21 13:11:01;;;;;;;10.55;1.80;;;;;;;;;;5089754;28;20027;-68
2022/05/21 13:13:29;;;;;;;12.75;2.28;;;;;;;;;;5104592;28;20028;-68
2022/05/21 13:15:58;;;;;;;15.23;1.88;;;;;;;;;;5113691;28;20027;-68
2022/05/21 13:18:23;;;;;;;11.30;2.05;;;;;;;;;;5105335;28;20107;-68
2022/05/21 13:21:04;;;;;;;14.23;2.17;;;;;;;;;;5104944;28;20139;-68
2022/05/21 13:23:35;;;;;;;12.70;2.83;;;;;;;;;;5113404;28;20031;-68
2022/05/21 13:26:00;;;;;;;13.77;2.78;;;;;;;;;;5112466;28;20106;-68
2022/05/21 13:28:26;;;;;;;18.05;2.90;;;;;;;;;;5112899;28;20142;-68
2022/05/21 13:30:52;;;;;;;15.23;2.20;;;;;;;;;;5108317;28;20035;-68
2022/05/21 13:33:32;;;;;;;9.57;2.00;;;;;;;;;;5101849;28;20460;-68
2022/05/21 13:35:59;;;;;;;20.30;2.45;;;;;;;;;;5113142;28;20038;-68
2022/05/21 13:38:28;;;;;;;14.52;2.00;;;;;;;;;;5100303;28;20382;-68
2022/05/21 13:40:55;;;;;;;11.38;1.90;;;;;;;;;;5102322;28;20073;-69
2022/05/21 13:43:22;;;;;;;11.63;2.63;;;;;;;;;;5107242;28;20031;-68
2022/05/21 13:46:07;;;;;;;11.23;2.00;;;;;;;;;;5104060;28;20119;-68
2022/05/21 13:48:38;;;;;;;13.57;2.22;;;;;;;;;;5103926;28;20110;-68
2022/05/21 13:51:03;;;;;;;13.13;1.90;;;;;;;;;;5106055;28;20031;-68
2022/05/21 13:53:31;;;;;;;10.80;1.98;;;;;;;;;;5104732;28;20040;-69
2022/05/21 13:55:57;;;;;;;15.02;2.03;;;;;;;;;;5106519;28;20023;-69
2022/05/21 13:58:28;;;;;;;12.48;2.65;;;;;;;;;;5107881;28;20039;-69
2022/05/21 14:00:53;;;;;;;14.95;2.00;;;;;;;;;;5105938;28;20068;-68
2022/05/21 14:03:26;;;;;;;10.75;2.10;;;;;;;;;;5103614;28;20024;-68
2022/05/21 14:05:53;;;;;;;9.90;2.03;;;;;;;;;;5112953;28;20031;-68
2022/05/21 14:08:25;;;;;;;15.07;2.80;;;;;;;;;;5105072;28;20058;-68
2022/05/21 14:11:14;;;;;;;8.75;1.85;;;;;;;;;;5111189;28;20030;-68
2022/05/21 14:13:44;;;;;;;11.52;2.45;;;;;;;;;;5110766;28;20028;-68
2022/05/21 14:16:25;;;;;;;12.23;1.88;;;;;;;;;;5109751;28;20036;-68
2022/05/21 14:19:04;;;;;;;10.10;1.75;;;;;;;;;;5106130;28;20024;-68
2022/05/21 14:21:30;;;;;;;8.38;1.55;;;;;;;;;;5117519;28;20491;-68
2022/05/21 14:24:15;;;;;;;9.18;2.17;;;;;;;;;;5117624;28;20102;-68
2022/05/21 14:26:52;;;;;;;9.65;1.83;;;;;;;;;;5115946;28;20444;-68
2022/05/21 14:29:35;;;;;;;10.52;1.83;;;;;;;;;;5106001;28;20099;-68
2022/05/21 14:32:33;;;;;;;12.63;1.95;;;;;;;;;;5103630;28;20475;-68
2022/05/21 14:35:17;;;;;;;10.65;1.80;;;;;;;;;;5071260;28;20036;-68
2022/05/21 14:37:42;;;;;;;8.80;1.63;;;;;;;;;;5117207;28;20036;-68
2022/05/21 14:40:10;;;;;;;9.68;2.00;;;;;;;;;;5117282;28;20028;-68
2022/05/21 14:42:35;;;;;;;9.88;1.83;;;;;;;;;;5117144;28;20475;-68
2022/05/21 14:45:01;;;;;;;10.25;1.95;;;;;;;;;;5116437;28;20032;-69
2022/05/21 14:53:00;;;;;;;10.02;1.45;;;;;;;;;;5058874;28;20040;-68
2022/05/21 14:55:26;;;;;;;10.73;1.70;;;;;;;;;;5115822;28;20035;-68
2022/05/21 14:57:51;;;;;;;10.32;2.40;;;;;;;;;;5116815;28;20049;-69
2022/05/21 15:00:18;;;;;;;9.07;1.70;;;;;;;;;;5113035;28;20051;-69
2022/05/21 15:02:43;;;;;;;9.15;1.70;;;;;;;;;;5100811;28;20498;-68
2022/05/21 15:05:09;;;;;;;9.18;1.50;;;;;;;;;;5108000;28;20028;-68
2022/05/21 15:07:36;;;;;;;6.47;1.50;;;;;;;;;;5100461;28;20020;-68
2022/05/21 15:10:03;;;;;;;9.20;1.40;;;;;;;;;;5115127;28;20081;-68
2022/05/21 15:12:28;;;;;;;9.63;2.17;;;;;;;;;;5103083;28;20115;-68
2022/05/21 15:14:53;;;;;;;10.63;1.73;;;;;;;;;;5104864;28;20103;-68
2022/05/21 15:17:18;;;;;;;8.02;1.65;;;;;;;;;;5093706;28;20051;-69